sensor_id;sensor_type;location;lat;lon;timestamp;P1;durP1;ratioP1;P2;durP2;ratioP2
7531;SDS011;3807;49.030;8.714;2023-07-28T00:02:07;4.40;;;2.80;;
7531;SDS011;3807;49.030;8.714;2023-07-28T00:04:36;5.00;;;2.70;;
7531;SDS011;3807;49.030;8.714;2023-07-28T00:07:03;3.43;;;2.63;;
7531;SDS011;3807;49.030;8.714;2023-07-28T00:09:29;3.63;;;2.40;;
7531;SDS011;3807;49.030;8.714;2023-07-28T00:11:55;5.23;;;2.87;;
7531;SDS011;3807;49.030;8.714;2023-07-28T00:14:24;3.40;;;2.60;;
7531;SDS011;3807;49.030;8.714;2023-07-28T00:16:53;4.57;;;3.20;;
7531;SDS011;3807;49.030;8.714;2023-07-28T00:19:20;3.00;;;2.63;;
7531;SDS011;3807;49.030;8.714;2023-07-28T00:21:48;3.60;;;2.73;;
7531;SDS011;3807;49.030;8.714;2023-07-28T00:24:14;2.97;;;2.60;;
7531;SDS011;3807;49.030;8.714;2023-07-28T00:26:40;3.40;;;2.57;;
7531;SDS011;3807;49.030;8.714;2023-07-28T00:29:05;3.20;;;2.60;;
7531;SDS011;3807;49.030;8.714;2023-07-28T00:31:32;3.20;;;2.53;;
7531;SDS011;3807;49.030;8.714;2023-07-28T00:33:58;3.37;;;2.70;;
7531;SDS011;3807;49.030;8.714;2023-07-28T00:36:23;3.33;;;2.77;;
7531;SDS011;3807;49.030;8.714;2023-07-28T00:38:48;3.17;;;2.30;;
7531;SDS011;3807;49.030;8.714;2023-07-28T00:41:14;5.10;;;2.80;;
7531;SDS011;3807;49.030;8.714;2023-07-28T00:43:39;6.67;;;2.83;;
7531;SDS011;3807;49.030;8.714;2023-07-28T00:46:04;6.00;;;2.70;;
7531;SDS011;3807;49.030;8.714;2023-07-28T00:48:30;5.33;;;2.77;;
7531;SDS011;3807;49.030;8.714;2023-07-28T00:50:56;3.77;;;2.50;;
7531;SDS011;3807;49.030;8.714;2023-07-28T00:53:22;4.10;;;2.90;;
7531;SDS011;3807;49.030;8.714;2023-07-28T00:55:48;3.53;;;2.53;;
7531;SDS011;3807;49.030;8.714;2023-07-28T00:58:14;5.30;;;2.90;;
7531;SDS011;3807;49.030;8.714;2023-07-28T01:00:39;5.35;;;3.08;;
7531;SDS011;3807;49.030;8.714;2023-07-28T01:03:05;4.80;;;2.43;;
7531;SDS011;3807;49.030;8.714;2023-07-28T01:05:33;2.97;;;2.30;;
7531;SDS011;3807;49.030;8.714;2023-07-28T01:08:06;4.37;;;2.70;;
7531;SDS011;3807;49.030;8.714;2023-07-28T01:10:41;3.35;;;2.65;;
7531;SDS011;3807;49.030;8.714;2023-07-28T01:13:08;3.55;;;2.62;;
7531;SDS011;3807;49.030;8.714;2023-07-28T01:15:33;4.43;;;2.90;;
7531;SDS011;3807;49.030;8.714;2023-07-28T01:17:58;3.45;;;2.45;;
7531;SDS011;3807;49.030;8.714;2023-07-28T01:20:24;3.30;;;2.53;;
7531;SDS011;3807;49.030;8.714;2023-07-28T01:25:45;4.17;;;2.47;;
7531;SDS011;3807;49.030;8.714;2023-07-28T01:28:15;5.97;;;2.80;;
7531;SDS011;3807;49.030;8.714;2023-07-28T01:30:42;3.37;;;2.70;;
7531;SDS011;3807;49.030;8.714;2023-07-28T01:33:07;5.30;;;3.20;;
7531;SDS011;3807;49.030;8.714;2023-07-28T01:35:34;3.43;;;2.43;;
7531;SDS011;3807;49.030;8.714;2023-07-28T01:38:01;4.90;;;2.63;;
7531;SDS011;3807;49.030;8.714;2023-07-28T01:40:26;4.80;;;3.22;;
7531;SDS011;3807;49.030;8.714;2023-07-28T01:42:51;5.73;;;3.87;;
7531;SDS011;3807;49.030;8.714;2023-07-28T01:45:17;7.53;;;4.30;;
7531;SDS011;3807;49.030;8.714;2023-07-28T01:47:42;4.33;;;3.20;;
7531;SDS011;3807;49.030;8.714;2023-07-28T01:50:07;4.30;;;2.60;;
7531;SDS011;3807;49.030;8.714;2023-07-28T01:52:33;3.93;;;2.90;;
7531;SDS011;3807;49.030;8.714;2023-07-28T01:54:58;5.30;;;3.00;;
7531;SDS011;3807;49.030;8.714;2023-07-28T01:57:23;5.00;;;2.83;;
7531;SDS011;3807;49.030;8.714;2023-07-28T01:59:52;3.93;;;2.73;;
7531;SDS011;3807;49.030;8.714;2023-07-28T02:02:18;6.77;;;3.50;;
7531;SDS011;3807;49.030;8.714;2023-07-28T02:04:43;4.27;;;3.07;;
7531;SDS011;3807;49.030;8.714;2023-07-28T02:07:08;3.87;;;3.13;;
7531;SDS011;3807;49.030;8.714;2023-07-28T02:09:34;7.40;;;3.43;;
7531;SDS011;3807;49.030;8.714;2023-07-28T02:11:59;3.77;;;2.57;;
7531;SDS011;3807;49.030;8.714;2023-07-28T02:14:24;5.00;;;3.30;;
7531;SDS011;3807;49.030;8.714;2023-07-28T02:16:49;8.47;;;3.80;;
7531;SDS011;3807;49.030;8.714;2023-07-28T02:19:15;5.97;;;4.30;;
7531;SDS011;3807;49.030;8.714;2023-07-28T02:21:40;5.37;;;3.83;;
7531;SDS011;3807;49.030;8.714;2023-07-28T02:24:05;6.83;;;3.70;;
7531;SDS011;3807;49.030;8.714;2023-07-28T02:26:31;7.70;;;3.73;;
7531;SDS011;3807;49.030;8.714;2023-07-28T02:28:56;6.17;;;3.90;;
7531;SDS011;3807;49.030;8.714;2023-07-28T02:31:21;4.60;;;3.20;;
7531;SDS011;3807;49.030;8.714;2023-07-28T02:33:47;7.73;;;3.97;;
7531;SDS011;3807;49.030;8.714;2023-07-28T02:36:12;4.80;;;3.30;;
7531;SDS011;3807;49.030;8.714;2023-07-28T02:38:37;4.33;;;3.07;;
7531;SDS011;3807;49.030;8.714;2023-07-28T02:41:03;4.43;;;2.83;;
7531;SDS011;3807;49.030;8.714;2023-07-28T02:43:29;5.83;;;2.63;;
7531;SDS011;3807;49.030;8.714;2023-07-28T02:45:54;9.70;;;2.90;;
7531;SDS011;3807;49.030;8.714;2023-07-28T02:48:21;4.10;;;2.80;;
7531;SDS011;3807;49.030;8.714;2023-07-28T02:50:47;5.60;;;2.57;;
7531;SDS011;3807;49.030;8.714;2023-07-28T02:53:13;3.93;;;2.57;;
7531;SDS011;3807;49.030;8.714;2023-07-28T02:55:45;3.03;;;2.60;;
7531;SDS011;3807;49.030;8.714;2023-07-28T02:58:12;5.27;;;2.97;;
7531;SDS011;3807;49.030;8.714;2023-07-28T03:00:41;3.20;;;2.00;;
7531;SDS011;3807;49.030;8.714;2023-07-28T03:03:08;3.63;;;2.10;;
7531;SDS011;3807;49.030;8.714;2023-07-28T03:05:35;3.00;;;2.10;;
7531;SDS011;3807;49.030;8.714;2023-07-28T03:08:01;3.00;;;2.23;;
7531;SDS011;3807;49.030;8.714;2023-07-28T03:10:26;4.50;;;2.37;;
7531;SDS011;3807;49.030;8.714;2023-07-28T03:12:52;5.53;;;2.33;;
7531;SDS011;3807;49.030;8.714;2023-07-28T03:15:17;3.70;;;2.40;;
7531;SDS011;3807;49.030;8.714;2023-07-28T03:17:42;6.03;;;2.70;;
7531;SDS011;3807;49.030;8.714;2023-07-28T03:20:08;4.00;;;2.50;;
7531;SDS011;3807;49.030;8.714;2023-07-28T03:22:33;4.70;;;2.77;;
7531;SDS011;3807;49.030;8.714;2023-07-28T03:24:59;4.10;;;2.60;;
7531;SDS011;3807;49.030;8.714;2023-07-28T03:27:24;5.53;;;3.17;;
7531;SDS011;3807;49.030;8.714;2023-07-28T03:29:50;2.73;;;2.30;;
7531;SDS011;3807;49.030;8.714;2023-07-28T03:32:15;2.93;;;2.30;;
7531;SDS011;3807;49.030;8.714;2023-07-28T03:34:41;4.50;;;2.73;;
7531;SDS011;3807;49.030;8.714;2023-07-28T03:37:06;3.40;;;2.30;;
7531;SDS011;3807;49.030;8.714;2023-07-28T03:39:31;5.10;;;2.77;;
7531;SDS011;3807;49.030;8.714;2023-07-28T03:41:57;5.33;;;2.63;;
7531;SDS011;3807;49.030;8.714;2023-07-28T03:44:22;3.57;;;2.63;;
7531;SDS011;3807;49.030;8.714;2023-07-28T03:46:48;3.90;;;2.87;;
7531;SDS011;3807;49.030;8.714;2023-07-28T03:49:13;4.03;;;2.97;;
7531;SDS011;3807;49.030;8.714;2023-07-28T03:51:39;5.47;;;3.10;;
7531;SDS011;3807;49.030;8.714;2023-07-28T03:54:04;4.90;;;2.80;;
7531;SDS011;3807;49.030;8.714;2023-07-28T03:56:30;6.53;;;2.90;;
7531;SDS011;3807;49.030;8.714;2023-07-28T03:58:55;4.83;;;2.77;;
7531;SDS011;3807;49.030;8.714;2023-07-28T04:01:20;3.87;;;2.80;;
7531;SDS011;3807;49.030;8.714;2023-07-28T04:03:47;4.63;;;2.93;;
7531;SDS011;3807;49.030;8.714;2023-07-28T04:06:12;5.57;;;3.10;;
7531;SDS011;3807;49.030;8.714;2023-07-28T04:08:38;7.10;;;3.23;;
7531;SDS011;3807;49.030;8.714;2023-07-28T04:11:07;6.43;;;3.00;;
7531;SDS011;3807;49.030;8.714;2023-07-28T04:13:35;4.83;;;3.27;;
7531;SDS011;3807;49.030;8.714;2023-07-28T04:16:01;4.50;;;2.93;;
7531;SDS011;3807;49.030;8.714;2023-07-28T04:18:26;6.63;;;3.30;;
7531;SDS011;3807;49.030;8.714;2023-07-28T04:20:52;5.53;;;3.50;;
7531;SDS011;3807;49.030;8.714;2023-07-28T04:23:18;4.63;;;3.20;;
7531;SDS011;3807;49.030;8.714;2023-07-28T04:25:43;5.50;;;3.30;;
7531;SDS011;3807;49.030;8.714;2023-07-28T04:28:09;5.77;;;3.03;;
7531;SDS011;3807;49.030;8.714;2023-07-28T04:30:34;5.27;;;2.73;;
7531;SDS011;3807;49.030;8.714;2023-07-28T04:32:59;5.07;;;3.03;;
7531;SDS011;3807;49.030;8.714;2023-07-28T04:35:25;3.30;;;2.73;;
7531;SDS011;3807;49.030;8.714;2023-07-28T04:37:50;5.00;;;2.80;;
7531;SDS011;3807;49.030;8.714;2023-07-28T04:40:16;3.37;;;2.60;;
7531;SDS011;3807;49.030;8.714;2023-07-28T04:42:41;4.43;;;2.80;;
7531;SDS011;3807;49.030;8.714;2023-07-28T04:45:06;3.80;;;3.00;;
7531;SDS011;3807;49.030;8.714;2023-07-28T04:47:32;2.77;;;2.30;;
7531;SDS011;3807;49.030;8.714;2023-07-28T04:49:58;3.93;;;2.40;;
7531;SDS011;3807;49.030;8.714;2023-07-28T04:52:23;3.43;;;2.60;;
7531;SDS011;3807;49.030;8.714;2023-07-28T04:54:49;4.53;;;2.40;;
7531;SDS011;3807;49.030;8.714;2023-07-28T04:57:14;4.87;;;2.80;;
7531;SDS011;3807;49.030;8.714;2023-07-28T04:59:39;3.47;;;2.47;;
7531;SDS011;3807;49.030;8.714;2023-07-28T05:02:05;4.13;;;2.77;;
7531;SDS011;3807;49.030;8.714;2023-07-28T05:04:30;4.37;;;3.03;;
7531;SDS011;3807;49.030;8.714;2023-07-28T05:06:56;3.20;;;2.20;;
7531;SDS011;3807;49.030;8.714;2023-07-28T05:09:21;4.87;;;2.50;;
7531;SDS011;3807;49.030;8.714;2023-07-28T05:11:47;4.17;;;2.10;;
7531;SDS011;3807;49.030;8.714;2023-07-28T05:14:12;8.10;;;2.80;;
7531;SDS011;3807;49.030;8.714;2023-07-28T05:16:37;2.80;;;2.47;;
7531;SDS011;3807;49.030;8.714;2023-07-28T05:19:05;2.77;;;2.20;;
7531;SDS011;3807;49.030;8.714;2023-07-28T05:21:31;4.27;;;2.70;;
7531;SDS011;3807;49.030;8.714;2023-07-28T05:23:56;3.10;;;2.73;;
7531;SDS011;3807;49.030;8.714;2023-07-28T05:26:22;5.97;;;2.90;;
7531;SDS011;3807;49.030;8.714;2023-07-28T05:28:47;3.03;;;2.40;;
7531;SDS011;3807;49.030;8.714;2023-07-28T05:31:12;3.23;;;2.80;;
7531;SDS011;3807;49.030;8.714;2023-07-28T05:33:40;3.57;;;3.00;;
7531;SDS011;3807;49.030;8.714;2023-07-28T05:36:05;3.23;;;2.53;;
7531;SDS011;3807;49.030;8.714;2023-07-28T05:38:31;3.20;;;2.40;;
7531;SDS011;3807;49.030;8.714;2023-07-28T05:40:57;3.20;;;2.53;;
7531;SDS011;3807;49.030;8.714;2023-07-28T05:43:26;3.23;;;2.57;;
7531;SDS011;3807;49.030;8.714;2023-07-28T05:45:52;4.23;;;2.53;;
7531;SDS011;3807;49.030;8.714;2023-07-28T05:48:18;4.10;;;2.50;;
7531;SDS011;3807;49.030;8.714;2023-07-28T05:50:43;4.93;;;2.70;;
7531;SDS011;3807;49.030;8.714;2023-07-28T05:53:08;3.63;;;2.90;;
7531;SDS011;3807;49.030;8.714;2023-07-28T05:55:34;4.07;;;2.50;;
7531;SDS011;3807;49.030;8.714;2023-07-28T05:57:59;3.97;;;2.40;;
7531;SDS011;3807;49.030;8.714;2023-07-28T06:00:25;2.93;;;2.17;;
7531;SDS011;3807;49.030;8.714;2023-07-28T06:02:50;5.70;;;2.40;;
7531;SDS011;3807;49.030;8.714;2023-07-28T06:05:16;4.90;;;2.30;;
7531;SDS011;3807;49.030;8.714;2023-07-28T06:07:41;2.30;;;2.00;;
7531;SDS011;3807;49.030;8.714;2023-07-28T06:10:07;2.10;;;1.53;;
7531;SDS011;3807;49.030;8.714;2023-07-28T06:12:32;2.43;;;2.07;;
7531;SDS011;3807;49.030;8.714;2023-07-28T06:14:58;2.10;;;1.90;;
7531;SDS011;3807;49.030;8.714;2023-07-28T06:17:23;5.53;;;2.00;;
7531;SDS011;3807;49.030;8.714;2023-07-28T06:19:48;4.53;;;2.20;;
7531;SDS011;3807;49.030;8.714;2023-07-28T06:22:14;2.40;;;1.90;;
7531;SDS011;3807;49.030;8.714;2023-07-28T06:24:40;2.20;;;2.00;;
7531;SDS011;3807;49.030;8.714;2023-07-28T06:27:05;2.43;;;1.73;;
7531;SDS011;3807;49.030;8.714;2023-07-28T06:29:33;1.50;;;1.30;;
7531;SDS011;3807;49.030;8.714;2023-07-28T06:31:58;1.73;;;1.40;;
7531;SDS011;3807;49.030;8.714;2023-07-28T06:34:24;2.67;;;1.80;;
7531;SDS011;3807;49.030;8.714;2023-07-28T06:36:49;3.13;;;1.63;;
7531;SDS011;3807;49.030;8.714;2023-07-28T06:39:14;2.43;;;1.50;;
7531;SDS011;3807;49.030;8.714;2023-07-28T06:41:40;1.30;;;1.20;;
7531;SDS011;3807;49.030;8.714;2023-07-28T06:44:05;1.60;;;1.40;;
7531;SDS011;3807;49.030;8.714;2023-07-28T06:46:32;1.50;;;1.30;;
7531;SDS011;3807;49.030;8.714;2023-07-28T06:48:57;2.03;;;1.47;;
7531;SDS011;3807;49.030;8.714;2023-07-28T06:51:22;4.87;;;1.50;;
7531;SDS011;3807;49.030;8.714;2023-07-28T06:53:48;2.53;;;1.47;;
7531;SDS011;3807;49.030;8.714;2023-07-28T06:56:13;2.53;;;1.47;;
7531;SDS011;3807;49.030;8.714;2023-07-28T06:58:38;1.63;;;1.40;;
7531;SDS011;3807;49.030;8.714;2023-07-28T07:01:04;2.33;;;1.40;;
7531;SDS011;3807;49.030;8.714;2023-07-28T07:03:29;2.33;;;1.70;;
7531;SDS011;3807;49.030;8.714;2023-07-28T07:05:54;2.80;;;1.40;;
7531;SDS011;3807;49.030;8.714;2023-07-28T07:08:19;2.50;;;2.03;;
7531;SDS011;3807;49.030;8.714;2023-07-28T07:10:48;2.70;;;1.67;;
7531;SDS011;3807;49.030;8.714;2023-07-28T07:13:17;2.40;;;1.53;;
7531;SDS011;3807;49.030;8.714;2023-07-28T07:15:43;1.87;;;1.53;;
7531;SDS011;3807;49.030;8.714;2023-07-28T07:18:08;3.17;;;1.10;;
7531;SDS011;3807;49.030;8.714;2023-07-28T07:20:34;1.93;;;1.40;;
7531;SDS011;3807;49.030;8.714;2023-07-28T07:23:01;2.43;;;1.40;;
7531;SDS011;3807;49.030;8.714;2023-07-28T07:25:27;1.60;;;1.47;;
7531;SDS011;3807;49.030;8.714;2023-07-28T07:27:52;1.80;;;1.47;;
7531;SDS011;3807;49.030;8.714;2023-07-28T07:30:17;2.03;;;1.50;;
7531;SDS011;3807;49.030;8.714;2023-07-28T07:32:43;2.03;;;1.30;;
7531;SDS011;3807;49.030;8.714;2023-07-28T07:35:08;1.57;;;1.37;;
7531;SDS011;3807;49.030;8.714;2023-07-28T07:37:34;2.17;;;1.60;;
7531;SDS011;3807;49.030;8.714;2023-07-28T07:39:59;2.97;;;1.37;;
7531;SDS011;3807;49.030;8.714;2023-07-28T07:42:26;1.83;;;1.30;;
7531;SDS011;3807;49.030;8.714;2023-07-28T07:44:52;1.40;;;1.00;;
7531;SDS011;3807;49.030;8.714;2023-07-28T07:47:17;1.70;;;1.47;;
7531;SDS011;3807;49.030;8.714;2023-07-28T07:49:43;2.03;;;1.40;;
7531;SDS011;3807;49.030;8.714;2023-07-28T07:52:09;2.03;;;1.27;;
7531;SDS011;3807;49.030;8.714;2023-07-28T07:54:34;1.53;;;1.40;;
7531;SDS011;3807;49.030;8.714;2023-07-28T07:57:00;1.80;;;1.50;;
7531;SDS011;3807;49.030;8.714;2023-07-28T07:59:25;1.67;;;1.40;;
7531;SDS011;3807;49.030;8.714;2023-07-28T08:01:53;2.43;;;1.43;;
7531;SDS011;3807;49.030;8.714;2023-07-28T08:04:19;1.57;;;1.40;;
7531;SDS011;3807;49.030;8.714;2023-07-28T08:06:44;1.70;;;1.60;;
7531;SDS011;3807;49.030;8.714;2023-07-28T08:09:09;1.70;;;1.47;;
7531;SDS011;3807;49.030;8.714;2023-07-28T08:11:35;1.60;;;1.50;;
7531;SDS011;3807;49.030;8.714;2023-07-28T08:14:00;3.80;;;1.87;;
7531;SDS011;3807;49.030;8.714;2023-07-28T08:16:25;1.80;;;1.50;;
7531;SDS011;3807;49.030;8.714;2023-07-28T08:18:51;2.00;;;1.80;;
7531;SDS011;3807;49.030;8.714;2023-07-28T08:21:16;2.27;;;1.63;;
7531;SDS011;3807;49.030;8.714;2023-07-28T08:23:41;3.30;;;1.60;;
7531;SDS011;3807;49.030;8.714;2023-07-28T08:26:07;2.20;;;1.87;;
7531;SDS011;3807;49.030;8.714;2023-07-28T08:28:32;2.13;;;1.90;;
7531;SDS011;3807;49.030;8.714;2023-07-28T08:30:58;2.33;;;1.73;;
7531;SDS011;3807;49.030;8.714;2023-07-28T08:33:24;4.03;;;2.07;;
7531;SDS011;3807;49.030;8.714;2023-07-28T08:35:49;2.17;;;1.70;;
7531;SDS011;3807;49.030;8.714;2023-07-28T08:38:15;2.13;;;1.93;;
7531;SDS011;3807;49.030;8.714;2023-07-28T08:40:40;2.07;;;1.73;;
7531;SDS011;3807;49.030;8.714;2023-07-28T08:43:05;2.00;;;1.80;;
7531;SDS011;3807;49.030;8.714;2023-07-28T08:45:31;2.10;;;1.60;;
7531;SDS011;3807;49.030;8.714;2023-07-28T08:47:56;2.20;;;1.67;;
7531;SDS011;3807;49.030;8.714;2023-07-28T08:50:22;2.87;;;1.87;;
7531;SDS011;3807;49.030;8.714;2023-07-28T08:52:48;2.37;;;1.80;;
7531;SDS011;3807;49.030;8.714;2023-07-28T08:55:15;2.50;;;1.70;;
7531;SDS011;3807;49.030;8.714;2023-07-28T08:57:41;3.70;;;1.80;;
7531;SDS011;3807;49.030;8.714;2023-07-28T09:00:10;2.23;;;2.03;;
7531;SDS011;3807;49.030;8.714;2023-07-28T09:02:38;3.93;;;1.60;;
7531;SDS011;3807;49.030;8.714;2023-07-28T09:05:05;2.77;;;1.87;;
7531;SDS011;3807;49.030;8.714;2023-07-28T09:07:34;2.33;;;1.83;;
7531;SDS011;3807;49.030;8.714;2023-07-28T09:10:02;1.97;;;1.57;;
7531;SDS011;3807;49.030;8.714;2023-07-28T09:12:32;2.27;;;1.93;;
7531;SDS011;3807;49.030;8.714;2023-07-28T09:14:58;3.67;;;2.00;;
7531;SDS011;3807;49.030;8.714;2023-07-28T09:17:23;3.20;;;1.93;;
7531;SDS011;3807;49.030;8.714;2023-07-28T09:19:52;2.43;;;1.83;;
7531;SDS011;3807;49.030;8.714;2023-07-28T09:22:19;3.90;;;1.97;;
7531;SDS011;3807;49.030;8.714;2023-07-28T09:24:45;1.70;;;1.60;;
7531;SDS011;3807;49.030;8.714;2023-07-28T09:27:25;3.00;;;2.13;;
7531;SDS011;3807;49.030;8.714;2023-07-28T09:29:52;2.50;;;1.90;;
7531;SDS011;3807;49.030;8.714;2023-07-28T09:32:28;2.03;;;1.60;;
7531;SDS011;3807;49.030;8.714;2023-07-28T09:35:08;2.97;;;1.70;;
7531;SDS011;3807;49.030;8.714;2023-07-28T09:37:38;2.07;;;1.60;;
7531;SDS011;3807;49.030;8.714;2023-07-28T09:40:12;2.20;;;1.70;;
7531;SDS011;3807;49.030;8.714;2023-07-28T09:42:39;3.10;;;2.00;;
7531;SDS011;3807;49.030;8.714;2023-07-28T09:45:05;2.30;;;1.70;;
7531;SDS011;3807;49.030;8.714;2023-07-28T09:47:33;1.83;;;1.57;;
7531;SDS011;3807;49.030;8.714;2023-07-28T09:50:01;2.03;;;1.80;;
7531;SDS011;3807;49.030;8.714;2023-07-28T09:52:29;1.50;;;1.30;;
7531;SDS011;3807;49.030;8.714;2023-07-28T09:54:59;1.70;;;1.60;;
7531;SDS011;3807;49.030;8.714;2023-07-28T09:57:26;3.43;;;1.70;;
7531;SDS011;3807;49.030;8.714;2023-07-28T09:59:52;3.55;;;1.80;;
7531;SDS011;3807;49.030;8.714;2023-07-28T10:02:20;3.40;;;1.80;;
7531;SDS011;3807;49.030;8.714;2023-07-28T10:04:46;1.60;;;1.50;;
7531;SDS011;3807;49.030;8.714;2023-07-28T10:07:11;2.20;;;1.63;;
7531;SDS011;3807;49.030;8.714;2023-07-28T10:09:38;2.20;;;1.52;;
7531;SDS011;3807;49.030;8.714;2023-07-28T10:12:04;1.67;;;1.42;;
7531;SDS011;3807;49.030;8.714;2023-07-28T10:14:30;2.15;;;1.73;;
7531;SDS011;3807;49.030;8.714;2023-07-28T10:17:00;3.30;;;1.65;;
7531;SDS011;3807;49.030;8.714;2023-07-28T10:19:27;2.00;;;1.70;;
7531;SDS011;3807;49.030;8.714;2023-07-28T10:24:54;3.47;;;1.62;;
7531;SDS011;3807;49.030;8.714;2023-07-28T10:29:59;2.17;;;1.65;;
7531;SDS011;3807;49.030;8.714;2023-07-28T10:32:26;4.18;;;2.00;;
7531;SDS011;3807;49.030;8.714;2023-07-28T10:35:03;3.50;;;1.80;;
7531;SDS011;3807;49.030;8.714;2023-07-28T10:37:32;2.28;;;1.40;;
7531;SDS011;3807;49.030;8.714;2023-07-28T10:43:03;3.60;;;1.58;;
7531;SDS011;3807;49.030;8.714;2023-07-28T10:45:32;1.60;;;1.42;;
7531;SDS011;3807;49.030;8.714;2023-07-28T10:47:58;3.45;;;1.92;;
7531;SDS011;3807;49.030;8.714;2023-07-28T10:50:28;3.00;;;1.98;;
7531;SDS011;3807;49.030;8.714;2023-07-28T10:52:55;3.87;;;1.98;;
7531;SDS011;3807;49.030;8.714;2023-07-28T10:55:22;2.05;;;1.77;;
7531;SDS011;3807;49.030;8.714;2023-07-28T10:57:49;1.95;;;1.70;;
7531;SDS011;3807;49.030;8.714;2023-07-28T11:00:17;3.03;;;1.80;;
7531;SDS011;3807;49.030;8.714;2023-07-28T11:02:52;3.83;;;2.08;;
7531;SDS011;3807;49.030;8.714;2023-07-28T11:07:48;2.15;;;1.73;;
7531;SDS011;3807;49.030;8.714;2023-07-28T11:10:14;3.47;;;1.60;;
7531;SDS011;3807;49.030;8.714;2023-07-28T11:12:43;2.55;;;2.12;;
7531;SDS011;3807;49.030;8.714;2023-07-28T11:15:10;2.08;;;1.87;;
7531;SDS011;3807;49.030;8.714;2023-07-28T11:17:37;3.62;;;1.60;;
7531;SDS011;3807;49.030;8.714;2023-07-28T11:20:22;2.03;;;1.80;;
7531;SDS011;3807;49.030;8.714;2023-07-28T11:22:53;2.12;;;1.65;;
7531;SDS011;3807;49.030;8.714;2023-07-28T11:25:20;2.17;;;1.52;;
7531;SDS011;3807;49.030;8.714;2023-07-28T11:27:46;1.55;;;1.45;;
7531;SDS011;3807;49.030;8.714;2023-07-28T11:30:13;2.37;;;1.55;;
7531;SDS011;3807;49.030;8.714;2023-07-28T11:32:41;1.65;;;1.55;;
7531;SDS011;3807;49.030;8.714;2023-07-28T11:35:09;1.60;;;1.50;;
7531;SDS011;3807;49.030;8.714;2023-07-28T11:37:36;3.47;;;1.80;;
7531;SDS011;3807;49.030;8.714;2023-07-28T11:40:03;1.80;;;1.50;;
7531;SDS011;3807;49.030;8.714;2023-07-28T11:42:36;2.50;;;1.75;;
7531;SDS011;3807;49.030;8.714;2023-07-28T11:45:03;3.72;;;1.90;;
7531;SDS011;3807;49.030;8.714;2023-07-28T11:47:29;2.00;;;1.80;;
7531;SDS011;3807;49.030;8.714;2023-07-28T11:49:55;1.70;;;1.40;;
7531;SDS011;3807;49.030;8.714;2023-07-28T11:52:23;1.80;;;1.50;;
7531;SDS011;3807;49.030;8.714;2023-07-28T11:54:49;2.75;;;1.48;;
7531;SDS011;3807;49.030;8.714;2023-07-28T11:57:17;2.28;;;1.65;;
7531;SDS011;3807;49.030;8.714;2023-07-28T11:59:42;2.62;;;1.83;;
7531;SDS011;3807;49.030;8.714;2023-07-28T12:02:09;2.47;;;1.73;;
7531;SDS011;3807;49.030;8.714;2023-07-28T12:04:35;1.95;;;1.50;;
7531;SDS011;3807;49.030;8.714;2023-07-28T12:07:15;2.58;;;1.90;;
7531;SDS011;3807;49.030;8.714;2023-07-28T12:09:47;2.83;;;1.80;;
7531;SDS011;3807;49.030;8.714;2023-07-28T12:12:16;3.87;;;2.00;;
7531;SDS011;3807;49.030;8.714;2023-07-28T12:14:43;3.20;;;2.22;;
7531;SDS011;3807;49.030;8.714;2023-07-28T12:17:14;3.87;;;2.40;;
7531;SDS011;3807;49.030;8.714;2023-07-28T12:22:43;4.60;;;2.22;;
7531;SDS011;3807;49.030;8.714;2023-07-28T12:25:09;2.45;;;1.77;;
7531;SDS011;3807;49.030;8.714;2023-07-28T12:27:36;3.47;;;2.08;;
7531;SDS011;3807;49.030;8.714;2023-07-28T12:30:02;2.37;;;2.17;;
7531;SDS011;3807;49.030;8.714;2023-07-28T12:32:28;3.17;;;2.12;;
7531;SDS011;3807;49.030;8.714;2023-07-28T12:34:53;2.40;;;2.00;;
7531;SDS011;3807;49.030;8.714;2023-07-28T12:37:19;2.87;;;2.30;;
7531;SDS011;3807;49.030;8.714;2023-07-28T12:39:45;3.83;;;2.62;;
7531;SDS011;3807;49.030;8.714;2023-07-28T12:42:11;3.10;;;2.20;;
7531;SDS011;3807;49.030;8.714;2023-07-28T12:44:37;4.15;;;2.12;;
7531;SDS011;3807;49.030;8.714;2023-07-28T12:47:03;3.55;;;2.17;;
7531;SDS011;3807;49.030;8.714;2023-07-28T12:49:29;3.42;;;2.50;;
7531;SDS011;3807;49.030;8.714;2023-07-28T12:51:59;3.75;;;2.60;;
7531;SDS011;3807;49.030;8.714;2023-07-28T12:54:25;4.78;;;2.25;;
7531;SDS011;3807;49.030;8.714;2023-07-28T12:56:51;4.47;;;2.45;;
7531;SDS011;3807;49.030;8.714;2023-07-28T12:59:17;3.87;;;2.40;;
7531;SDS011;3807;49.030;8.714;2023-07-28T13:01:42;5.97;;;2.55;;
7531;SDS011;3807;49.030;8.714;2023-07-28T13:04:07;2.70;;;2.20;;
7531;SDS011;3807;49.030;8.714;2023-07-28T13:06:33;5.05;;;2.47;;
7531;SDS011;3807;49.030;8.714;2023-07-28T13:08:58;2.78;;;2.45;;
7531;SDS011;3807;49.030;8.714;2023-07-28T13:11:24;5.20;;;2.67;;
7531;SDS011;3807;49.030;8.714;2023-07-28T13:13:49;4.03;;;3.00;;
7531;SDS011;3807;49.030;8.714;2023-07-28T13:16:14;3.67;;;2.47;;
7531;SDS011;3807;49.030;8.714;2023-07-28T13:18:40;3.33;;;2.60;;
7531;SDS011;3807;49.030;8.714;2023-07-28T13:21:07;4.45;;;2.90;;
7531;SDS011;3807;49.030;8.714;2023-07-28T13:23:32;5.07;;;3.08;;
7531;SDS011;3807;49.030;8.714;2023-07-28T13:25:58;3.62;;;2.33;;
7531;SDS011;3807;49.030;8.714;2023-07-28T13:28:24;5.07;;;2.42;;
7531;SDS011;3807;49.030;8.714;2023-07-28T13:30:50;3.35;;;2.67;;
7531;SDS011;3807;49.030;8.714;2023-07-28T13:33:16;3.05;;;2.50;;
7531;SDS011;3807;49.030;8.714;2023-07-28T13:35:41;4.03;;;2.60;;
7531;SDS011;3807;49.030;8.714;2023-07-28T13:38:07;4.47;;;2.65;;
7531;SDS011;3807;49.030;8.714;2023-07-28T13:40:32;5.53;;;2.47;;
7531;SDS011;3807;49.030;8.714;2023-07-28T13:42:58;2.67;;;2.30;;
7531;SDS011;3807;49.030;8.714;2023-07-28T13:45:23;4.30;;;2.53;;
7531;SDS011;3807;49.030;8.714;2023-07-28T13:47:48;4.87;;;2.45;;
7531;SDS011;3807;49.030;8.714;2023-07-28T13:50:14;9.25;;;2.15;;
7531;SDS011;3807;49.030;8.714;2023-07-28T13:52:40;3.25;;;2.75;;
7531;SDS011;3807;49.030;8.714;2023-07-28T13:55:05;3.30;;;2.50;;
7531;SDS011;3807;49.030;8.714;2023-07-28T13:57:31;4.60;;;2.85;;
7531;SDS011;3807;49.030;8.714;2023-07-28T13:59:57;3.33;;;2.90;;
7531;SDS011;3807;49.030;8.714;2023-07-28T14:02:23;3.95;;;2.67;;
7531;SDS011;3807;49.030;8.714;2023-07-28T14:04:48;3.92;;;2.70;;
7531;SDS011;3807;49.030;8.714;2023-07-28T14:07:14;3.85;;;2.45;;
7531;SDS011;3807;49.030;8.714;2023-07-28T14:09:39;3.50;;;2.80;;
7531;SDS011;3807;49.030;8.714;2023-07-28T14:12:04;5.87;;;2.83;;
7531;SDS011;3807;49.030;8.714;2023-07-28T14:14:30;3.72;;;2.90;;
7531;SDS011;3807;49.030;8.714;2023-07-28T14:16:56;3.08;;;2.50;;
7531;SDS011;3807;49.030;8.714;2023-07-28T14:19:21;4.18;;;3.10;;
7531;SDS011;3807;49.030;8.714;2023-07-28T14:21:46;4.07;;;2.42;;
7531;SDS011;3807;49.030;8.714;2023-07-28T14:24:12;3.83;;;2.70;;
7531;SDS011;3807;49.030;8.714;2023-07-28T14:26:38;3.17;;;2.55;;
7531;SDS011;3807;49.030;8.714;2023-07-28T14:29:03;3.90;;;2.12;;
7531;SDS011;3807;49.030;8.714;2023-07-28T14:31:29;5.28;;;2.75;;
7531;SDS011;3807;49.030;8.714;2023-07-28T14:33:54;3.45;;;2.15;;
7531;SDS011;3807;49.030;8.714;2023-07-28T14:36:19;4.03;;;2.97;;
7531;SDS011;3807;49.030;8.714;2023-07-28T14:38:45;4.40;;;2.85;;
7531;SDS011;3807;49.030;8.714;2023-07-28T14:41:11;5.70;;;3.12;;
7531;SDS011;3807;49.030;8.714;2023-07-28T14:43:36;3.25;;;2.75;;
7531;SDS011;3807;49.030;8.714;2023-07-28T14:46:02;5.82;;;2.78;;
7531;SDS011;3807;49.030;8.714;2023-07-28T14:48:27;4.30;;;2.42;;
7531;SDS011;3807;49.030;8.714;2023-07-28T14:50:53;3.45;;;2.37;;
7531;SDS011;3807;49.030;8.714;2023-07-28T14:53:28;2.75;;;2.20;;
7531;SDS011;3807;49.030;8.714;2023-07-28T14:55:54;3.03;;;2.28;;
7531;SDS011;3807;49.030;8.714;2023-07-28T14:58:20;6.95;;;2.35;;
7531;SDS011;3807;49.030;8.714;2023-07-28T15:00:46;3.25;;;2.35;;
7531;SDS011;3807;49.030;8.714;2023-07-28T15:03:11;3.85;;;2.50;;
7531;SDS011;3807;49.030;8.714;2023-07-28T15:05:36;3.00;;;2.10;;
7531;SDS011;3807;49.030;8.714;2023-07-28T15:08:02;3.05;;;2.30;;
7531;SDS011;3807;49.030;8.714;2023-07-28T15:10:27;3.65;;;2.30;;
7531;SDS011;3807;49.030;8.714;2023-07-28T15:12:52;2.70;;;2.37;;
7531;SDS011;3807;49.030;8.714;2023-07-28T15:15:18;2.62;;;2.12;;
7531;SDS011;3807;49.030;8.714;2023-07-28T15:17:43;2.72;;;2.10;;
7531;SDS011;3807;49.030;8.714;2023-07-28T15:20:09;3.25;;;2.47;;
7531;SDS011;3807;49.030;8.714;2023-07-28T15:22:34;4.97;;;2.47;;
7531;SDS011;3807;49.030;8.714;2023-07-28T15:25:00;2.30;;;2.10;;
7531;SDS011;3807;49.030;8.714;2023-07-28T15:27:26;3.15;;;2.33;;